Time;durP1;ratioP1;P1;durP2;ratioP2;P2;SDS_P1;SDS_P2;PMS_P1;PMS_P2;Temp;Humidity;BMP_temperature;BMP_pressure;BME280_temperature;BME280_humidity;BME280_pressure;Samples;Min_cycle;Max_cycle;Signal;HPM_P1;HPM_P2
2024/03/03 00:01:05;;;;;;;6.13;3.30;;;;;;;;;;5068808;28;20607;-73
2024/03/03 00:03:32;;;;;;;4.95;3.35;;;;;;;;;;5051546;28;20072;-74
2024/03/03 00:06:02;;;;;;;4.57;3.00;;;;;;;;;;5047804;28;20595;-74
2024/03/03 00:08:29;;;;;;;6.00;3.28;;;;;;;;;;5051408;28;20075;-74
2024/03/03 00:10:55;;;;;;;4.88;2.97;;;;;;;;;;5051290;28;20057;-73
2024/03/03 00:13:22;;;;;;;5.28;3.40;;;;;;;;;;5068177;28;20059;-74
2024/03/03 00:15:49;;;;;;;8.73;3.95;;;;;;;;;;5049572;28;20543;-74
2024/03/03 00:18:15;;;;;;;5.78;3.50;;;;;;;;;;5058886;28;20139;-74
2024/03/03 00:20:42;;;;;;;5.85;3.60;;;;;;;;;;5055878;28;20083;-74
2024/03/03 00:23:08;;;;;;;6.00;3.50;;;;;;;;;;5053594;28;20057;-75
2024/03/03 00:25:34;;;;;;;6.13;3.20;;;;;;;;;;5055882;28;20092;-74
2024/03/03 00:28:01;;;;;;;7.10;3.60;;;;;;;;;;5051375;28;20056;-73
2024/03/03 00:30:27;;;;;;;6.88;4.05;;;;;;;;;;5057939;28;20102;-73
2024/03/03 00:32:54;;;;;;;6.22;3.80;;;;;;;;;;5059431;28;20098;-74
2024/03/03 00:35:20;;;;;;;7.32;3.70;;;;;;;;;;5073197;28;20132;-75
2024/03/03 00:37:47;;;;;;;7.32;3.80;;;;;;;;;;5053091;28;20048;-74
2024/03/03 00:40:13;;;;;;;7.32;4.25;;;;;;;;;;5052283;28;20048;-74
2024/03/03 00:42:40;;;;;;;7.97;3.97;;;;;;;;;;5063538;28;20052;-74
2024/03/03 00:45:06;;;;;;;6.13;3.88;;;;;;;;;;5056329;28;21435;-74
2024/03/03 00:47:32;;;;;;;6.40;3.53;;;;;;;;;;5054058;28;20125;-75
2024/03/03 00:49:59;;;;;;;5.55;3.60;;;;;;;;;;5051571;28;20412;-75
2024/03/03 00:52:25;;;;;;;7.32;3.92;;;;;;;;;;5056188;28;20049;-74
2024/03/03 00:54:52;;;;;;;6.90;4.28;;;;;;;;;;5056968;28;20734;-75
2024/03/03 00:57:18;;;;;;;6.32;3.97;;;;;;;;;;5047385;28;20068;-75
2024/03/03 00:59:44;;;;;;;6.22;4.07;;;;;;;;;;5061017;28;20136;-74
2024/03/03 01:02:11;;;;;;;9.30;4.40;;;;;;;;;;5040471;28;20052;-75
2024/03/03 01:04:37;;;;;;;6.10;3.30;;;;;;;;;;5032162;28;20049;-75
2024/03/03 01:07:04;;;;;;;6.68;4.63;;;;;;;;;;5052912;28;20041;-74
2024/03/03 01:09:30;;;;;;;6.18;4.15;;;;;;;;;;5033117;28;20037;-74
2024/03/03 01:11:57;;;;;;;6.68;4.13;;;;;;;;;;5062998;28;20387;-74
2024/03/03 01:14:23;;;;;;;6.30;4.30;;;;;;;;;;5051073;28;20055;-74
2024/03/03 01:16:50;;;;;;;6.50;4.22;;;;;;;;;;5059564;28;20052;-73
2024/03/03 01:19:16;;;;;;;7.95;4.22;;;;;;;;;;5045013;28;20053;-74
2024/03/03 01:21:43;;;;;;;6.65;4.03;;;;;;;;;;5046681;28;20814;-74
2024/03/03 01:24:09;;;;;;;8.73;4.75;;;;;;;;;;5061309;28;20060;-74
2024/03/03 01:26:37;;;;;;;7.13;5.20;;;;;;;;;;5049248;28;20138;-75
2024/03/03 01:29:03;;;;;;;7.93;4.97;;;;;;;;;;5055844;28;20143;-74
2024/03/03 01:31:30;;;;;;;6.93;4.35;;;;;;;;;;5045556;28;20060;-72
2024/03/03 01:33:56;;;;;;;7.28;4.63;;;;;;;;;;5060642;28;20070;-74
2024/03/03 01:36:23;;;;;;;8.98;4.45;;;;;;;;;;5049142;28;20053;-74
2024/03/03 01:38:49;;;;;;;8.25;4.30;;;;;;;;;;5079743;28;20159;-74
2024/03/03 01:41:16;;;;;;;6.25;4.65;;;;;;;;;;5064590;28;20535;-75
2024/03/03 01:43:42;;;;;;;7.57;5.18;;;;;;;;;;5052882;28;20059;-75
2024/03/03 01:46:09;;;;;;;7.43;3.92;;;;;;;;;;5051005;28;20048;-75
2024/03/03 01:48:36;;;;;;;10.88;5.20;;;;;;;;;;5050957;28;20051;-75
2024/03/03 01:51:04;;;;;;;7.53;4.18;;;;;;;;;;5053383;28;20060;-75
2024/03/03 01:53:31;;;;;;;8.15;4.50;;;;;;;;;;5064579;28;20052;-74
2024/03/03 01:55:58;;;;;;;8.57;4.75;;;;;;;;;;5051793;28;20052;-73
2024/03/03 01:58:26;;;;;;;8.60;5.13;;;;;;;;;;5065443;28;20509;-73
2024/03/03 02:00:52;;;;;;;12.77;5.23;;;;;;;;;;5084394;28;20490;-73
2024/03/03 02:03:19;;;;;;;9.43;5.70;;;;;;;;;;5067775;28;20289;-74
2024/03/03 02:05:45;;;;;;;8.63;4.63;;;;;;;;;;5079921;28;20048;-74
2024/03/03 02:08:12;;;;;;;9.45;5.45;;;;;;;;;;5057539;28;20636;-74
2024/03/03 02:10:38;;;;;;;10.43;6.20;;;;;;;;;;5065968;28;20145;-74
2024/03/03 02:13:05;;;;;;;12.07;5.63;;;;;;;;;;5074505;28;20087;-74
2024/03/03 02:15:31;;;;;;;9.73;5.13;;;;;;;;;;5073510;28;20541;-74
2024/03/03 02:17:58;;;;;;;9.25;5.25;;;;;;;;;;5087102;28;20059;-73
2024/03/03 02:20:25;;;;;;;10.93;6.40;;;;;;;;;;5051047;28;20515;-74
2024/03/03 02:22:51;;;;;;;11.23;5.78;;;;;;;;;;5059766;28;20124;-74
2024/03/03 02:25:18;;;;;;;12.77;6.80;;;;;;;;;;5079690;28;20052;-74
2024/03/03 02:27:44;;;;;;;9.88;6.25;;;;;;;;;;5078855;28;20475;-74
2024/03/03 02:30:11;;;;;;;9.80;6.70;;;;;;;;;;5070542;28;20104;-73
2024/03/03 02:32:38;;;;;;;12.95;6.53;;;;;;;;;;5071302;28;20055;-74
2024/03/03 02:35:04;;;;;;;11.52;6.70;;;;;;;;;;5062510;28;20448;-74
2024/03/03 02:37:30;;;;;;;10.68;6.32;;;;;;;;;;5063819;28;20068;-74
2024/03/03 02:39:57;;;;;;;11.52;6.95;;;;;;;;;;5062775;28;20342;-73
2024/03/03 02:42:23;;;;;;;11.30;6.18;;;;;;;;;;5068374;28;20048;-74
2024/03/03 02:44:50;;;;;;;9.95;5.90;;;;;;;;;;5072387;28;20101;-73
2024/03/03 02:47:16;;;;;;;11.07;6.40;;;;;;;;;;5073034;28;20040;-74
2024/03/03 02:49:42;;;;;;;10.13;6.03;;;;;;;;;;5064424;28;20044;-73
2024/03/03 02:52:09;;;;;;;11.90;6.20;;;;;;;;;;5078468;28;20055;-74
2024/03/03 02:54:35;;;;;;;9.90;5.60;;;;;;;;;;5079055;28;20113;-73
2024/03/03 02:57:02;;;;;;;10.02;5.57;;;;;;;;;;5071806;28;20050;-74
2024/03/03 02:59:29;;;;;;;9.40;5.57;;;;;;;;;;5081145;28;20048;-74
2024/03/03 03:01:55;;;;;;;9.27;5.70;;;;;;;;;;5071434;28;20147;-74
2024/03/03 03:04:21;;;;;;;8.25;5.47;;;;;;;;;;5078998;28;20105;-73
2024/03/03 03:06:48;;;;;;;9.07;5.35;;;;;;;;;;5067989;28;20044;-74
2024/03/03 03:09:14;;;;;;;12.05;6.80;;;;;;;;;;5077129;28;20044;-74
2024/03/03 03:11:41;;;;;;;10.05;5.85;;;;;;;;;;5079232;28;20090;-74
2024/03/03 03:14:07;;;;;;;11.02;5.93;;;;;;;;;;5066053;28;20041;-74
2024/03/03 03:16:33;;;;;;;10.77;6.05;;;;;;;;;;5080679;28;20133;-74
2024/03/03 03:19:00;;;;;;;7.13;4.72;;;;;;;;;;5058659;28;20661;-74
2024/03/03 03:21:26;;;;;;;8.02;5.32;;;;;;;;;;5083117;28;20048;-74
2024/03/03 03:23:53;;;;;;;10.48;4.60;;;;;;;;;;5079973;28;20390;-73
2024/03/03 03:26:19;;;;;;;9.45;5.57;;;;;;;;;;5087304;28;20051;-74
2024/03/03 03:28:46;;;;;;;8.68;4.90;;;;;;;;;;5064794;28;20048;-74
2024/03/03 03:31:12;;;;;;;7.60;4.78;;;;;;;;;;5059139;28;20080;-74
2024/03/03 03:33:39;;;;;;;8.55;4.50;;;;;;;;;;5064164;28;20051;-74
2024/03/03 03:36:09;;;;;;;8.93;4.55;;;;;;;;;;5055287;28;20169;-73
2024/03/03 03:38:36;;;;;;;9.07;4.97;;;;;;;;;;5079176;28;20525;-72
2024/03/03 03:41:06;;;;;;;7.13;4.63;;;;;;;;;;5064520;28;20546;-74
2024/03/03 03:43:32;;;;;;;7.65;4.60;;;;;;;;;;5072755;28;20041;-75
2024/03/03 03:45:58;;;;;;;7.38;4.68;;;;;;;;;;5070758;28;20427;-74
2024/03/03 03:48:25;;;;;;;7.95;5.38;;;;;;;;;;5060744;28;20454;-74
2024/03/03 03:50:51;;;;;;;9.70;5.55;;;;;;;;;;5093738;28;20047;-74
2024/03/03 03:53:19;;;;;;;7.55;4.95;;;;;;;;;;5074819;28;20146;-74
2024/03/03 03:55:47;;;;;;;9.38;5.40;;;;;;;;;;5072443;28;20064;-74
2024/03/03 03:58:14;;;;;;;6.65;4.85;;;;;;;;;;5070205;28;20052;-74
2024/03/03 04:00:40;;;;;;;8.75;5.38;;;;;;;;;;5067419;28;20040;-75
2024/03/03 04:03:07;;;;;;;12.13;5.20;;;;;;;;;;5062671;28;20649;-74
2024/03/03 04:05:33;;;;;;;8.40;5.22;;;;;;;;;;5073561;28;20435;-73
2024/03/03 04:07:59;;;;;;;8.00;5.75;;;;;;;;;;5082789;28;20055;-73
2024/03/03 04:10:26;;;;;;;9.77;5.55;;;;;;;;;;5074848;28;20064;-73
2024/03/03 04:12:55;;;;;;;8.88;5.47;;;;;;;;;;5064498;28;20048;-73
2024/03/03 04:15:22;;;;;;;7.43;5.18;;;;;;;;;;5063013;28;20044;-73
2024/03/03 04:17:48;;;;;;;6.40;4.78;;;;;;;;;;5072611;28;20076;-74
2024/03/03 04:20:15;;;;;;;7.28;5.03;;;;;;;;;;5080656;28;20091;-73
2024/03/03 04:22:41;;;;;;;9.63;5.00;;;;;;;;;;5060212;28;20075;-74
2024/03/03 04:25:08;;;;;;;10.13;4.78;;;;;;;;;;5076975;28;20112;-73
2024/03/03 04:27:35;;;;;;;8.98;5.28;;;;;;;;;;5050563;28;20071;-74
2024/03/03 04:30:01;;;;;;;7.60;4.85;;;;;;;;;;5062184;28;20542;-73
2024/03/03 04:32:27;;;;;;;8.13;5.28;;;;;;;;;;5063353;28;20539;-74
2024/03/03 04:34:54;;;;;;;8.30;5.50;;;;;;;;;;5071786;28;20048;-73
2024/03/03 04:37:20;;;;;;;9.07;5.40;;;;;;;;;;5071158;28;20036;-73
2024/03/03 04:39:47;;;;;;;10.13;6.47;;;;;;;;;;5054109;28;20049;-74
2024/03/03 04:42:13;;;;;;;12.82;7.68;;;;;;;;;;5054321;28;20048;-74
2024/03/03 04:44:40;;;;;;;10.82;7.25;;;;;;;;;;5061136;28;20060;-74
2024/03/03 04:47:09;;;;;;;9.27;6.55;;;;;;;;;;5064149;28;20048;-74
2024/03/03 04:49:37;;;;;;;8.70;6.15;;;;;;;;;;5082395;28;20135;-74
2024/03/03 04:52:03;;;;;;;9.40;5.72;;;;;;;;;;5082025;28;20752;-73
2024/03/03 04:54:30;;;;;;;9.50;5.55;;;;;;;;;;5080030;28;20660;-73
2024/03/03 04:56:56;;;;;;;7.95;4.70;;;;;;;;;;5066209;28;20143;-73
2024/03/03 04:59:23;;;;;;;9.02;6.18;;;;;;;;;;5060219;28;20091;-73
2024/03/03 05:01:49;;;;;;;8.68;5.50;;;;;;;;;;5073868;28;20048;-74
2024/03/03 05:04:16;;;;;;;9.38;5.20;;;;;;;;;;5081440;28;20511;-74
2024/03/03 05:06:43;;;;;;;8.02;5.30;;;;;;;;;;5063082;28;20036;-73
2024/03/03 05:09:10;;;;;;;10.00;5.47;;;;;;;;;;5074134;28;20059;-74
2024/03/03 05:11:36;;;;;;;7.95;5.55;;;;;;;;;;5048534;28;20616;-73
2024/03/03 05:14:03;;;;;;;8.38;5.47;;;;;;;;;;5071916;28;20053;-74
2024/03/03 05:16:29;;;;;;;7.97;5.03;;;;;;;;;;5082266;28;20456;-74
2024/03/03 05:18:56;;;;;;;7.95;5.15;;;;;;;;;;5082259;28;20043;-73
2024/03/03 05:21:22;;;;;;;9.80;5.65;;;;;;;;;;5074427;28;20392;-73
2024/03/03 05:23:49;;;;;;;8.70;5.32;;;;;;;;;;5077304;28;20046;-73
2024/03/03 05:26:16;;;;;;;11.70;6.00;;;;;;;;;;5071551;28;20044;-74
2024/03/03 05:28:42;;;;;;;9.02;5.45;;;;;;;;;;5084959;28;20565;-74
2024/03/03 05:31:08;;;;;;;8.10;5.45;;;;;;;;;;5068109;28;20045;-74
2024/03/03 05:33:35;;;;;;;8.57;4.95;;;;;;;;;;5057972;28;20101;-74
2024/03/03 05:36:01;;;;;;;9.25;5.88;;;;;;;;;;5060786;28;20101;-73
2024/03/03 05:38:28;;;;;;;9.70;5.15;;;;;;;;;;5080720;28;20047;-73
2024/03/03 05:40:54;;;;;;;7.82;5.20;;;;;;;;;;5065890;28;20043;-73
2024/03/03 05:43:21;;;;;;;8.32;5.50;;;;;;;;;;5071159;28;20079;-73
2024/03/03 05:45:47;;;;;;;9.80;5.45;;;;;;;;;;5081033;28;20612;-74
2024/03/03 05:48:13;;;;;;;8.73;5.32;;;;;;;;;;5068243;28;20067;-74
2024/03/03 05:50:40;;;;;;;8.88;5.22;;;;;;;;;;5064081;28;20552;-73
2024/03/03 05:53:06;;;;;;;10.13;6.72;;;;;;;;;;5067091;28;20062;-74
2024/03/03 05:55:33;;;;;;;11.52;7.53;;;;;;;;;;5073278;28;20447;-73
2024/03/03 05:57:59;;;;;;;10.30;5.80;;;;;;;;;;5076712;28;20048;-74
2024/03/03 06:00:26;;;;;;;8.65;5.47;;;;;;;;;;5087940;28;20396;-73
2024/03/03 06:02:52;;;;;;;8.48;5.72;;;;;;;;;;5076911;28;20139;-74
2024/03/03 06:05:19;;;;;;;10.02;6.20;;;;;;;;;;5060341;28;20745;-73
2024/03/03 06:07:45;;;;;;;9.50;5.68;;;;;;;;;;5080148;28;20793;-73
2024/03/03 06:10:11;;;;;;;8.40;5.10;;;;;;;;;;5066748;28;20040;-73
2024/03/03 06:12:38;;;;;;;7.28;5.32;;;;;;;;;;5072735;28;20040;-74
2024/03/03 06:15:05;;;;;;;8.02;4.70;;;;;;;;;;5080024;28;20116;-74
2024/03/03 06:17:32;;;;;;;10.38;5.88;;;;;;;;;;5078117;28;20162;-73
2024/03/03 06:19:58;;;;;;;9.52;6.00;;;;;;;;;;5071510;28;20040;-73
2024/03/03 06:22:25;;;;;;;9.38;5.65;;;;;;;;;;5073923;28;20522;-74
2024/03/03 06:24:51;;;;;;;7.68;5.07;;;;;;;;;;5073518;28;20550;-74
2024/03/03 06:27:18;;;;;;;7.95;4.95;;;;;;;;;;5072270;28;20135;-74
2024/03/03 06:29:44;;;;;;;8.05;5.40;;;;;;;;;;5086820;28;20087;-74
2024/03/03 06:32:11;;;;;;;10.50;5.85;;;;;;;;;;5079519;28;20090;-73
2024/03/03 06:34:38;;;;;;;9.70;6.18;;;;;;;;;;5075299;28;20052;-74
2024/03/03 06:37:04;;;;;;;10.55;6.10;;;;;;;;;;5062442;28;20049;-74
2024/03/03 06:39:31;;;;;;;9.88;5.70;;;;;;;;;;5066735;28;20066;-74
2024/03/03 06:41:57;;;;;;;8.60;5.45;;;;;;;;;;5080554;28;20069;-73
2024/03/03 06:44:24;;;;;;;8.48;5.35;;;;;;;;;;5073259;28;20048;-73
2024/03/03 06:46:50;;;;;;;8.20;5.10;;;;;;;;;;5077154;28;20040;-73
2024/03/03 06:49:17;;;;;;;9.75;6.13;;;;;;;;;;5067268;28;20070;-73
2024/03/03 06:51:44;;;;;;;10.88;6.28;;;;;;;;;;5088148;28;20485;-74
2024/03/03 06:54:10;;;;;;;10.27;6.13;;;;;;;;;;5075779;28;20048;-74
2024/03/03 06:56:37;;;;;;;9.23;5.68;;;;;;;;;;5057885;28;20036;-74
2024/03/03 06:59:03;;;;;;;9.18;5.85;;;;;;;;;;5077796;28;20050;-73
2024/03/03 07:01:30;;;;;;;9.60;5.88;;;;;;;;;;5061842;28;20051;-73
2024/03/03 07:06:42;;;;;;;10.20;6.20;;;;;;;;;;5061755;28;20051;-73
2024/03/03 07:09:09;;;;;;;9.07;6.13;;;;;;;;;;5076890;28;20048;-73
2024/03/03 07:11:36;;;;;;;10.38;6.63;;;;;;;;;;5085227;28;20120;-73
2024/03/03 07:14:03;;;;;;;10.02;5.93;;;;;;;;;;5080375;28;20044;-73
2024/03/03 07:16:30;;;;;;;10.82;6.30;;;;;;;;;;5073750;28;20117;-73
2024/03/03 07:18:58;;;;;;;9.98;5.97;;;;;;;;;;5065101;28;20124;-74
2024/03/03 07:21:25;;;;;;;9.73;6.95;;;;;;;;;;5066035;28;20049;-73
2024/03/03 07:23:51;;;;;;;10.98;7.25;;;;;;;;;;5063202;28;20113;-73
2024/03/03 07:26:17;;;;;;;9.02;6.13;;;;;;;;;;5075365;28;20525;-73
2024/03/03 07:28:44;;;;;;;11.07;6.40;;;;;;;;;;5080219;28;20531;-73
2024/03/03 07:31:10;;;;;;;10.48;6.10;;;;;;;;;;5057902;28;20059;-74
2024/03/03 07:33:38;;;;;;;10.50;5.80;;;;;;;;;;5079057;28;20052;-74
2024/03/03 07:36:05;;;;;;;8.93;5.80;;;;;;;;;;5059273;28;20438;-74
2024/03/03 07:38:32;;;;;;;9.80;6.57;;;;;;;;;;5063656;28;20041;-74
2024/03/03 07:40:58;;;;;;;11.15;6.68;;;;;;;;;;5067421;28;20137;-74
2024/03/03 07:43:28;;;;;;;11.90;6.57;;;;;;;;;;5048951;28;21362;-74
2024/03/03 07:45:55;;;;;;;11.75;6.43;;;;;;;;;;5052916;28;20087;-74
2024/03/03 07:48:21;;;;;;;9.30;6.38;;;;;;;;;;5072698;28;20048;-73
2024/03/03 07:50:48;;;;;;;11.02;7.20;;;;;;;;;;5081700;28;20071;-73
2024/03/03 07:53:14;;;;;;;10.98;7.05;;;;;;;;;;5079749;28;20037;-73
2024/03/03 07:55:41;;;;;;;10.77;6.50;;;;;;;;;;5061862;28;20044;-74
2024/03/03 07:58:08;;;;;;;7.85;5.85;;;;;;;;;;5078997;28;20140;-73
2024/03/03 08:00:34;;;;;;;9.90;6.70;;;;;;;;;;5061081;28;20657;-74
2024/03/03 08:03:01;;;;;;;9.18;6.07;;;;;;;;;;5077553;28;20097;-73
2024/03/03 08:05:34;;;;;;;12.65;6.32;;;;;;;;;;5081215;28;20480;-74
2024/03/03 08:08:00;;;;;;;10.90;6.82;;;;;;;;;;5055902;28;20133;-74
2024/03/03 08:10:27;;;;;;;10.25;6.22;;;;;;;;;;5077040;28;20083;-73
2024/03/03 08:12:54;;;;;;;11.05;6.72;;;;;;;;;;5076503;28;20643;-74
2024/03/03 08:15:21;;;;;;;12.70;7.30;;;;;;;;;;5084960;28;20805;-74
2024/03/03 08:17:48;;;;;;;10.13;6.05;;;;;;;;;;5056374;28;20076;-74
2024/03/03 08:20:14;;;;;;;10.77;7.03;;;;;;;;;;5066876;28;20127;-74
2024/03/03 08:22:41;;;;;;;10.10;5.95;;;;;;;;;;5083036;28;20052;-73
2024/03/03 08:25:09;;;;;;;9.32;5.63;;;;;;;;;;5082645;28;20156;-73
2024/03/03 08:27:35;;;;;;;10.30;6.13;;;;;;;;;;5088181;28;20040;-73
2024/03/03 08:30:05;;;;;;;11.20;7.07;;;;;;;;;;5079077;28;20056;-73
2024/03/03 08:32:34;;;;;;;9.13;5.70;;;;;;;;;;5078361;28;20040;-74
2024/03/03 08:35:00;;;;;;;10.23;6.78;;;;;;;;;;5076952;28;20799;-74
2024/03/03 08:37:27;;;;;;;10.70;6.85;;;;;;;;;;5086982;28;20044;-73
2024/03/03 08:39:53;;;;;;;9.52;6.97;;;;;;;;;;5072739;28;20573;-73
2024/03/03 08:42:20;;;;;;;11.30;6.88;;;;;;;;;;5070644;28;20135;-73
2024/03/03 08:44:46;;;;;;;12.35;7.60;;;;;;;;;;5075430;28;20066;-74
2024/03/03 08:47:12;;;;;;;9.70;6.25;;;;;;;;;;5053874;28;20131;-73
2024/03/03 08:49:39;;;;;;;10.35;6.85;;;;;;;;;;5081112;28;20394;-73
2024/03/03 08:52:05;;;;;;;11.93;7.68;;;;;;;;;;5081889;28;20057;-74
2024/03/03 08:54:32;;;;;;;13.15;7.80;;;;;;;;;;5073587;28;20397;-74
2024/03/03 08:56:59;;;;;;;12.60;6.82;;;;;;;;;;5066957;28;20118;-73
2024/03/03 08:59:25;;;;;;;8.85;6.30;;;;;;;;;;5059057;28;20049;-73
2024/03/03 09:01:51;;;;;;;15.18;7.57;;;;;;;;;;5084691;28;20046;-74
2024/03/03 09:04:18;;;;;;;10.82;7.47;;;;;;;;;;5091805;28;20051;-73
2024/03/03 09:06:44;;;;;;;11.77;7.57;;;;;;;;;;5074482;28;20382;-74
2024/03/03 09:09:11;;;;;;;11.10;6.43;;;;;;;;;;5069175;28;20815;-74
2024/03/03 09:11:38;;;;;;;10.68;6.25;;;;;;;;;;5055713;28;20047;-73
2024/03/03 09:14:04;;;;;;;12.65;7.78;;;;;;;;;;5075994;28;20048;-73
2024/03/03 09:16:30;;;;;;;9.65;6.20;;;;;;;;;;5078968;28;20048;-73
2024/03/03 09:18:58;;;;;;;12.95;7.70;;;;;;;;;;5084189;28;20052;-74
2024/03/03 09:21:24;;;;;;;13.43;7.50;;;;;;;;;;5070665;28;20388;-73
2024/03/03 09:23:51;;;;;;;11.13;7.28;;;;;;;;;;5075184;28;20047;-74
2024/03/03 09:26:17;;;;;;;13.55;7.63;;;;;;;;;;5083209;28;20055;-74
2024/03/03 09:28:44;;;;;;;12.75;7.82;;;;;;;;;;5088017;28;20051;-73
2024/03/03 09:31:10;;;;;;;13.60;9.00;;;;;;;;;;5085857;28;20052;-73
2024/03/03 09:33:38;;;;;;;11.65;7.93;;;;;;;;;;5074555;28;20056;-74
2024/03/03 09:36:05;;;;;;;14.95;8.63;;;;;;;;;;5070772;28;20481;-74
2024/03/03 09:38:32;;;;;;;14.05;7.95;;;;;;;;;;5069223;28;20083;-73
2024/03/03 09:40:58;;;;;;;12.27;7.47;;;;;;;;;;5051548;28;20193;-74
2024/03/03 09:43:27;;;;;;;12.20;8.48;;;;;;;;;;5071589;28;20044;-73
2024/03/03 09:45:53;;;;;;;13.00;8.90;;;;;;;;;;5067181;28;20081;-74
2024/03/03 09:48:21;;;;;;;10.80;6.88;;;;;;;;;;5082242;28;20044;-74
2024/03/03 09:50:50;;;;;;;10.68;7.25;;;;;;;;;;5091086;28;20087;-74
2024/03/03 09:53:18;;;;;;;13.93;8.73;;;;;;;;;;5077682;28;20048;-74
2024/03/03 09:55:44;;;;;;;13.80;8.10;;;;;;;;;;5049671;28;20040;-74
2024/03/03 09:58:12;;;;;;;12.45;7.30;;;;;;;;;;5070432;28;20067;-73
2024/03/03 10:00:39;;;;;;;14.43;8.98;;;;;;;;;;5083467;28;20396;-74
2024/03/03 10:03:09;;;;;;;14.57;8.65;;;;;;;;;;5080484;28;20054;-74
2024/03/03 10:05:37;;;;;;;12.43;6.82;;;;;;;;;;5080094;28;20111;-74
2024/03/03 10:08:04;;;;;;;14.15;7.65;;;;;;;;;;5081143;28;20075;-74
2024/03/03 10:10:33;;;;;;;15.45;9.40;;;;;;;;;;5069601;28;20079;-74
2024/03/03 10:13:01;;;;;;;16.33;9.23;;;;;;;;;;5083513;28;20055;-74
2024/03/03 10:15:29;;;;;;;15.95;9.48;;;;;;;;;;5081564;28;20506;-75
2024/03/03 10:17:55;;;;;;;12.82;7.97;;;;;;;;;;5077720;28;20441;-74
2024/03/03 10:20:22;;;;;;;18.85;10.63;;;;;;;;;;5062707;28;20074;-76
2024/03/03 10:22:48;;;;;;;14.13;8.73;;;;;;;;;;5062173;28;20060;-74
2024/03/03 10:25:15;;;;;;;15.40;9.25;;;;;;;;;;5064361;28;20124;-74
2024/03/03 10:27:44;;;;;;;19.95;9.65;;;;;;;;;;5061942;28;20143;-75
2024/03/03 10:30:12;;;;;;;14.77;10.32;;;;;;;;;;5086026;28;20063;-74
2024/03/03 10:32:39;;;;;;;15.95;9.65;;;;;;;;;;5065088;28;20055;-74
2024/03/03 10:35:07;;;;;;;17.40;9.55;;;;;;;;;;5068256;28;20097;-74
2024/03/03 10:37:33;;;;;;;12.65;8.40;;;;;;;;;;5065518;28;20127;-74
2024/03/03 10:40:01;;;;;;;13.68;8.50;;;;;;;;;;5069620;28;20048;-74
2024/03/03 10:42:29;;;;;;;12.38;8.65;;;;;;;;;;5072815;28;20647;-74
2024/03/03 10:44:56;;;;;;;13.35;8.93;;;;;;;;;;5062522;28;20061;-74
2024/03/03 10:47:22;;;;;;;14.35;9.20;;;;;;;;;;5066596;28;20166;-74
2024/03/03 10:49:49;;;;;;;16.27;8.80;;;;;;;;;;5076052;28;20567;-74
2024/03/03 10:52:17;;;;;;;15.73;9.57;;;;;;;;;;5087512;28;20476;-75
2024/03/03 10:54:44;;;;;;;12.63;8.90;;;;;;;;;;5080301;28;20036;-74
2024/03/03 10:57:12;;;;;;;15.75;9.45;;;;;;;;;;5080788;28;20143;-74
2024/03/03 10:59:39;;;;;;;15.45;9.55;;;;;;;;;;5084606;28;20066;-74
2024/03/03 11:02:09;;;;;;;15.52;9.20;;;;;;;;;;5082846;28;20384;-73
2024/03/03 11:04:37;;;;;;;18.15;9.18;;;;;;;;;;5094937;28;20079;-74
2024/03/03 11:07:04;;;;;;;16.63;9.63;;;;;;;;;;5072028;28;20051;-73
2024/03/03 11:09:31;;;;;;;14.55;8.73;;;;;;;;;;5060405;28;20295;-74
2024/03/03 11:12:00;;;;;;;16.90;9.43;;;;;;;;;;5086210;28;20105;-74
2024/03/03 11:14:41;;;;;;;14.80;9.05;;;;;;;;;;5068126;28;20472;-74
2024/03/03 11:17:08;;;;;;;16.58;8.73;;;;;;;;;;5079605;28;20058;-74
2024/03/03 11:19:40;;;;;;;15.07;9.48;;;;;;;;;;5066880;28;20049;-74
2024/03/03 11:22:10;;;;;;;13.18;8.43;;;;;;;;;;5042932;28;20048;-74
2024/03/03 11:24:41;;;;;;;10.35;7.55;;;;;;;;;;5082639;28;22228;-74
2024/03/03 11:27:13;;;;;;;14.50;7.97;;;;;;;;;;5080357;28;20473;-75
2024/03/03 11:29:46;;;;;;;13.27;8.23;;;;;;;;;;5077147;28;20428;-74
2024/03/03 11:32:14;;;;;;;12.52;8.23;;;;;;;;;;5068254;28;20059;-74
2024/03/03 11:34:42;;;;;;;14.52;8.05;;;;;;;;;;5084877;28;20052;-73
2024/03/03 11:37:09;;;;;;;14.13;8.70;;;;;;;;;;5073011;28;20105;-73
2024/03/03 11:39:37;;;;;;;12.13;7.95;;;;;;;;;;5066472;28;20040;-74
2024/03/03 11:42:17;;;;;;;12.48;7.70;;;;;;;;;;5072234;28;20135;-73
2024/03/03 11:44:48;;;;;;;11.30;8.40;;;;;;;;;;5072877;28;20048;-74
2024/03/03 11:47:15;;;;;;;13.18;8.00;;;;;;;;;;5073698;28;20044;-74
2024/03/03 11:49:42;;;;;;;13.85;7.82;;;;;;;;;;5063553;28;20547;-72
2024/03/03 11:52:08;;;;;;;12.13;7.55;;;;;;;;;;5080100;28;20066;-72
2024/03/03 11:54:39;;;;;;;11.98;7.32;;;;;;;;;;5089582;28;20591;-74
2024/03/03 11:57:07;;;;;;;10.25;6.50;;;;;;;;;;5078592;28;20102;-74
2024/03/03 11:59:38;;;;;;;12.30;7.22;;;;;;;;;;5084488;28;20048;-75
2024/03/03 12:02:04;;;;;;;13.48;8.15;;;;;;;;;;5092160;28;20144;-74
2024/03/03 12:04:31;;;;;;;17.48;8.82;;;;;;;;;;5065106;28;20051;-74
2024/03/03 12:06:58;;;;;;;14.82;8.88;;;;;;;;;;5082867;28;20079;-75
2024/03/03 12:09:24;;;;;;;12.18;8.13;;;;;;;;;;5069941;28;20071;-74
2024/03/03 12:11:52;;;;;;;12.07;7.60;;;;;;;;;;5075273;28;20049;-74
2024/03/03 12:14:19;;;;;;;16.42;8.23;;;;;;;;;;5060608;28;20262;-72
2024/03/03 12:16:45;;;;;;;12.70;8.40;;;;;;;;;;5078450;28;20549;-74
2024/03/03 12:19:11;;;;;;;11.60;8.18;;;;;;;;;;5071791;28;20053;-74
2024/03/03 12:21:41;;;;;;;12.25;6.95;;;;;;;;;;5065925;28;20048;-74
2024/03/03 12:24:08;;;;;;;11.88;7.28;;;;;;;;;;5060661;28;20052;-74
2024/03/03 12:26:34;;;;;;;10.77;6.97;;;;;;;;;;5078804;28;20373;-74
2024/03/03 12:29:01;;;;;;;12.07;7.18;;;;;;;;;;5085408;28;20101;-72
2024/03/03 12:31:30;;;;;;;12.52;7.30;;;;;;;;;;5058220;28;20117;-74
2024/03/03 12:33:58;;;;;;;10.80;6.70;;;;;;;;;;5064055;28;20098;-74
2024/03/03 12:36:28;;;;;;;10.48;5.95;;;;;;;;;;5063495;28;20055;-74
2024/03/03 12:38:55;;;;;;;6.57;3.72;;;;;;;;;;5060608;28;20044;-73
2024/03/03 12:41:21;;;;;;;5.90;3.70;;;;;;;;;;5078804;28;20740;-72
2024/03/03 12:43:52;;;;;;;7.25;4.47;;;;;;;;;;5073071;28;20106;-75
2024/03/03 12:46:18;;;;;;;8.88;5.10;;;;;;;;;;5058397;28;20102;-75
2024/03/03 12:48:45;;;;;;;8.95;5.00;;;;;;;;;;5068398;28;20119;-74
2024/03/03 12:51:13;;;;;;;8.57;5.40;;;;;;;;;;5083142;28;20044;-74
2024/03/03 12:53:39;;;;;;;7.82;4.85;;;;;;;;;;5069107;28;20045;-75
2024/03/03 12:56:16;;;;;;;7.00;3.88;;;;;;;;;;5070704;28;20052;-75
2024/03/03 12:58:44;;;;;;;6.35;4.47;;;;;;;;;;5057043;28;20125;-74
2024/03/03 13:01:10;;;;;;;7.45;4.40;;;;;;;;;;5057088;28;20473;-76
2024/03/03 13:03:38;;;;;;;7.32;4.57;;;;;;;;;;5081109;28;20040;-74
2024/03/03 13:06:10;;;;;;;9.52;4.80;;;;;;;;;;5078000;28;20147;-74
2024/03/03 13:08:37;;;;;;;6.93;4.32;;;;;;;;;;5070113;28;20052;-75
2024/03/03 13:11:03;;;;;;;9.45;4.93;;;;;;;;;;5081100;28;20048;-73
2024/03/03 13:13:31;;;;;;;8.30;4.70;;;;;;;;;;5053728;28;20129;-73
2024/03/03 13:15:57;;;;;;;7.13;4.07;;;;;;;;;;5078894;28;20063;-74
2024/03/03 13:18:24;;;;;;;9.00;4.60;;;;;;;;;;5073902;28;20048;-73
2024/03/03 13:20:50;;;;;;;7.53;4.60;;;;;;;;;;5086024;28;20693;-73
2024/03/03 13:23:17;;;;;;;10.57;5.03;;;;;;;;;;5074958;28;20040;-74
2024/03/03 13:25:44;;;;;;;6.95;4.97;;;;;;;;;;5081606;28;20036;-73
2024/03/03 13:28:14;;;;;;;8.23;5.22;;;;;;;;;;5084580;28;20129;-74
2024/03/03 13:30:41;;;;;;;8.82;5.70;;;;;;;;;;5073187;28;20135;-73
2024/03/03 13:33:08;;;;;;;13.07;6.90;;;;;;;;;;5082946;28;20047;-73
2024/03/03 13:35:34;;;;;;;8.45;4.97;;;;;;;;;;5071399;28;20040;-72
2024/03/03 13:38:00;;;;;;;10.82;7.22;;;;;;;;;;5082760;28;20087;-73
2024/03/03 13:40:27;;;;;;;11.05;5.97;;;;;;;;;;5070325;28;20041;-74
2024/03/03 13:42:53;;;;;;;8.75;5.88;;;;;;;;;;5076361;28;20040;-76
2024/03/03 13:45:20;;;;;;;10.63;6.13;;;;;;;;;;5086290;28;20085;-76
2024/03/03 13:47:46;;;;;;;9.77;6.40;;;;;;;;;;5063471;28;20105;-72
2024/03/03 13:50:13;;;;;;;9.75;6.85;;;;;;;;;;5077499;28;20130;-73
2024/03/03 13:52:39;;;;;;;11.35;7.22;;;;;;;;;;5089392;28;20058;-73
2024/03/03 13:55:06;;;;;;;8.55;6.07;;;;;;;;;;5070366;28;20055;-75
2024/03/03 13:57:32;;;;;;;9.52;7.05;;;;;;;;;;5081506;28;20047;-76
2024/03/03 13:59:59;;;;;;;9.75;6.90;;;;;;;;;;5063327;28;20048;-73
2024/03/03 14:02:25;;;;;;;8.30;6.75;;;;;;;;;;5078912;28;20056;-74
2024/03/03 14:04:52;;;;;;;10.02;5.90;;;;;;;;;;5067668;28;20605;-73
2024/03/03 14:07:18;;;;;;;9.75;5.15;;;;;;;;;;5082380;28;20044;-72
2024/03/03 14:09:45;;;;;;;8.55;5.90;;;;;;;;;;5072518;28;20127;-74
2024/03/03 14:12:11;;;;;;;6.57;4.45;;;;;;;;;;5073715;28;20166;-73
2024/03/03 14:14:37;;;;;;;8.43;4.55;;;;;;;;;;5082580;28;20048;-73
2024/03/03 14:17:04;;;;;;;7.55;4.28;;;;;;;;;;5068808;28;20080;-75
2024/03/03 14:19:30;;;;;;;6.95;4.00;;;;;;;;;;5069882;28;20771;-74
2024/03/03 14:21:57;;;;;;;7.28;4.38;;;;;;;;;;5080047;28;20623;-74
2024/03/03 14:24:23;;;;;;;7.93;4.35;;;;;;;;;;5070678;28;20051;-75
2024/03/03 14:26:50;;;;;;;5.30;3.60;;;;;;;;;;5074148;28;20532;-75
2024/03/03 14:29:18;;;;;;;6.38;3.53;;;;;;;;;;5063085;28;20079;-74
2024/03/03 14:31:44;;;;;;;7.32;4.53;;;;;;;;;;5088069;28;20071;-74
2024/03/03 14:34:11;;;;;;;11.10;3.70;;;;;;;;;;5079803;28;20056;-75
2024/03/03 14:36:37;;;;;;;7.38;3.55;;;;;;;;;;5055498;28;20044;-75